createdAt,value
2019-03-18T00:00:01.553Z,970.05
2019-03-18T00:05:01.399Z,970.14
2019-03-18T00:10:01.107Z,970.09
2019-03-18T00:15:02.098Z,970.03
2019-03-18T00:20:01.053Z,969.90
2019-03-18T00:25:03.803Z,969.82
2019-03-18T00:30:01.055Z,969.55
2019-03-18T00:35:01.556Z,969.61
2019-03-18T00:40:01.036Z,969.46
2019-03-18T00:45:13.759Z,969.40
2019-03-18T00:50:01.068Z,969.62
2019-03-18T00:55:01.057Z,969.73
2019-03-18T01:00:01.105Z,969.88
2019-03-18T01:05:01.612Z,970.15
2019-03-18T01:10:01.059Z,970.36
2019-03-18T01:15:01.389Z,970.48
2019-03-18T01:20:01.402Z,970.54
2019-03-18T01:25:01.055Z,970.63
2019-03-18T01:30:01.063Z,970.60
2019-03-18T01:35:01.075Z,970.70
2019-03-18T01:40:01.043Z,970.75
2019-03-18T01:45:01.065Z,970.82
2019-03-18T01:50:01.386Z,970.86
2019-03-18T01:55:01.050Z,970.86
2019-03-18T02:00:01.320Z,970.93
2019-03-18T02:05:01.039Z,970.94
2019-03-18T02:10:01.035Z,970.94
2019-03-18T02:15:01.053Z,971.02
2019-03-18T02:20:01.432Z,971.04
2019-03-18T02:25:01.410Z,971.25
2019-03-18T02:30:01.044Z,971.31
2019-03-18T02:35:01.048Z,971.39
2019-03-18T02:40:01.062Z,971.65
2019-03-18T02:45:01.050Z,971.77
2019-03-18T02:50:01.115Z,971.87
2019-03-18T02:55:01.356Z,972.06
2019-03-18T03:00:01.080Z,972.13
2019-03-18T03:05:01.046Z,972.14
2019-03-18T03:10:01.046Z,972.14
2019-03-18T03:15:01.486Z,972.56
2019-03-18T03:20:01.568Z,972.74
2019-03-18T03:25:01.049Z,972.86
2019-03-18T03:30:01.039Z,972.82
2019-03-18T03:35:01.629Z,972.56
2019-03-18T03:40:01.055Z,972.52
2019-03-18T03:45:01.076Z,972.69
2019-03-18T03:50:01.055Z,972.83
2019-03-18T03:55:01.514Z,973.30
2019-03-18T04:00:01.058Z,973.36
2019-03-18T04:05:01.061Z,973.46
2019-03-18T04:10:01.433Z,973.68
2019-03-18T04:15:01.036Z,973.99
2019-03-18T04:20:01.056Z,974.06
2019-03-18T04:25:01.051Z,974.27
2019-03-18T04:30:01.097Z,974.49
2019-03-18T04:35:01.027Z,974.46
2019-03-18T04:40:01.047Z,974.41
2019-03-18T04:45:01.113Z,974.82
2019-03-18T04:50:01.066Z,975.07
2019-03-18T04:55:01.120Z,975.05
2019-03-18T05:00:01.062Z,975.30
2019-03-18T05:05:01.173Z,975.31
2019-03-18T05:10:01.052Z,975.58
2019-03-18T05:15:01.177Z,975.60
2019-03-18T05:20:01.136Z,975.62
2019-03-18T05:25:01.126Z,975.62
2019-03-18T05:30:01.057Z,975.37
2019-03-18T05:35:01.105Z,975.30
2019-03-18T05:40:08.215Z,975.38
2019-03-18T05:45:01.042Z,975.61
2019-03-18T05:50:01.071Z,975.91
2019-03-18T05:55:01.162Z,975.93
2019-03-18T06:00:01.081Z,975.94
2019-03-18T06:05:01.047Z,975.98
2019-03-18T06:10:01.044Z,976.18
2019-03-18T06:15:01.069Z,976.26
2019-03-18T06:20:01.050Z,976.45
2019-03-18T06:25:01.074Z,976.52
2019-03-18T06:30:01.078Z,976.48
2019-03-18T06:35:01.264Z,976.48
2019-03-18T06:40:01.031Z,976.64
2019-03-18T06:45:01.235Z,976.70
2019-03-18T06:50:01.083Z,976.72
2019-03-18T06:55:02.361Z,976.69
2019-03-18T07:00:02.853Z,976.67
2019-03-18T07:05:01.058Z,976.78
2019-03-18T07:10:01.079Z,976.76
2019-03-18T07:15:01.073Z,976.87
2019-03-18T07:20:01.064Z,977.07
2019-03-18T07:25:05.300Z,977.30
2019-03-18T07:30:01.091Z,977.31
2019-03-18T07:35:01.377Z,977.32
2019-03-18T07:40:01.763Z,977.09
2019-03-18T07:45:01.079Z,977.07
2019-03-18T07:50:01.326Z,977.35
2019-03-18T07:55:01.767Z,977.14
2019-03-18T08:00:01.823Z,977.43
2019-03-18T08:05:01.305Z,977.45
2019-03-18T08:10:01.346Z,977.50
2019-03-18T08:15:01.576Z,977.60
2019-03-18T08:20:03.304Z,977.71
2019-03-18T08:25:01.329Z,977.74
2019-03-18T08:30:01.326Z,977.85
2019-03-18T08:35:01.692Z,977.85
2019-03-18T08:40:01.359Z,977.98
2019-03-18T08:45:01.322Z,978.02
2019-03-18T08:50:01.065Z,978.04
2019-03-18T08:55:01.129Z,978.32
2019-03-18T09:00:01.064Z,978.29
2019-03-18T09:05:01.073Z,978.12
2019-03-18T09:10:01.391Z,978.12
2019-03-18T09:15:01.054Z,978.41
2019-03-18T09:20:01.083Z,978.33
2019-03-18T09:25:01.915Z,978.58
2019-03-18T09:30:01.940Z,978.59
2019-03-18T09:35:01.121Z,978.54
2019-03-18T09:40:03.013Z,978.53
2019-03-18T09:45:01.063Z,978.47
2019-03-18T09:50:01.057Z,978.50
2019-03-18T09:55:01.072Z,978.61
2019-03-18T10:00:01.072Z,978.58
2019-03-18T10:05:01.474Z,978.48
2019-03-18T10:10:01.428Z,978.64
2019-03-18T10:15:01.604Z,978.86
2019-03-18T10:20:03.484Z,978.90
2019-03-18T10:25:04.177Z,978.84
2019-03-18T10:30:01.101Z,978.77
2019-03-18T10:35:01.055Z,978.90
2019-03-18T10:40:01.197Z,978.92
2019-03-18T10:45:01.070Z,978.89
2019-03-18T10:50:01.062Z,978.98
2019-03-18T10:55:01.111Z,978.91
2019-03-18T11:00:01.458Z,978.93
2019-03-18T11:05:01.658Z,979.01
2019-03-18T11:10:01.068Z,979.04
2019-03-18T11:15:01.390Z,979.10
2019-03-18T11:20:01.895Z,978.91
2019-03-18T11:25:01.091Z,978.92
2019-03-18T11:30:03.551Z,978.91
2019-03-18T11:35:01.389Z,978.96
2019-03-18T11:40:01.250Z,978.84
2019-03-18T11:45:01.118Z,978.83
2019-03-18T11:50:11.058Z,978.74
2019-03-18T11:55:01.255Z,978.62
2019-03-18T12:00:01.304Z,978.69
2019-03-18T12:05:01.325Z,978.62
2019-03-18T12:10:01.971Z,978.73
2019-03-18T12:15:01.720Z,978.59
2019-03-18T12:20:01.370Z,978.51
2019-03-18T12:25:01.718Z,978.41
2019-03-18T12:30:01.290Z,978.41
2019-03-18T12:35:01.739Z,978.30
2019-03-18T12:40:01.320Z,978.41
2019-03-18T12:45:01.278Z,978.44
2019-03-18T12:50:01.082Z,978.50
2019-03-18T12:55:01.106Z,978.46
2019-03-18T13:00:01.124Z,978.61
2019-03-18T13:05:01.088Z,978.51
2019-03-18T13:10:01.444Z,978.58
2019-03-18T13:15:01.150Z,978.40
2019-03-18T13:20:01.055Z,978.41
2019-03-18T13:25:01.099Z,978.37
2019-03-18T13:30:01.085Z,978.38
2019-03-18T13:35:01.057Z,978.36
2019-03-18T13:40:01.088Z,978.32
2019-03-18T13:45:01.504Z,978.31
2019-03-18T13:50:01.094Z,978.35
2019-03-18T13:55:01.117Z,978.48
2019-03-18T14:00:01.091Z,978.43
2019-03-18T14:05:01.073Z,978.43
2019-03-18T14:10:01.318Z,978.42
2019-03-18T14:15:01.106Z,978.39
2019-03-18T14:20:01.514Z,978.37
2019-03-18T14:25:01.117Z,978.37
2019-03-18T14:30:01.584Z,978.34
2019-03-18T14:35:01.471Z,978.23
2019-03-18T14:40:01.111Z,978.24
2019-03-18T14:45:01.368Z,978.40
2019-03-18T14:50:01.161Z,978.35
2019-03-18T14:55:01.516Z,978.37
2019-03-18T15:00:01.102Z,978.49
2019-03-18T15:05:01.082Z,978.52
2019-03-18T15:10:01.093Z,978.57
2019-03-18T15:15:01.070Z,978.58
2019-03-18T15:20:01.087Z,978.39
2019-03-18T15:25:01.065Z,978.58
2019-03-18T15:30:01.066Z,978.66
2019-03-18T15:35:01.065Z,978.65
2019-03-18T15:40:01.087Z,978.84
2019-03-18T15:45:03.024Z,978.90
2019-03-18T15:50:01.069Z,978.75
2019-03-18T15:55:01.757Z,978.94
2019-03-18T16:00:01.504Z,979.01
2019-03-18T16:05:01.546Z,978.91
2019-03-18T16:35:01.082Z,979.37
2019-03-18T16:40:01.117Z,979.46
2019-03-18T16:45:01.353Z,979.46
2019-03-18T16:50:01.101Z,979.58
2019-03-18T16:55:01.158Z,979.62
2019-03-18T17:00:01.121Z,979.69
2019-03-18T17:05:01.114Z,979.63
2019-03-18T17:10:01.505Z,979.64
2019-03-18T17:15:01.162Z,979.69
2019-03-18T17:20:01.113Z,979.61
2019-03-18T17:25:01.422Z,979.89
2019-03-18T17:30:01.110Z,979.98
2019-03-18T17:35:01.812Z,980.08
2019-03-18T17:40:01.084Z,980.18
2019-03-18T17:45:01.544Z,980.20
2019-03-18T17:50:01.559Z,980.36
2019-03-18T17:55:01.085Z,980.42
2019-03-18T18:00:01.076Z,980.33
2019-03-18T18:05:03.175Z,980.45
2019-03-18T18:10:01.103Z,980.56
2019-03-18T18:15:01.097Z,980.64
2019-03-18T18:20:01.094Z,980.66
2019-03-18T18:25:01.091Z,980.70
2019-03-18T18:30:01.096Z,980.72
2019-03-18T18:35:01.122Z,980.81
2019-03-18T18:40:01.175Z,980.77
2019-03-18T18:45:01.083Z,980.93
2019-03-18T18:50:01.149Z,980.90
2019-03-18T18:55:01.057Z,981.10
2019-03-18T19:00:06.502Z,981.02
2019-03-18T19:05:01.424Z,981.13
2019-03-18T19:10:01.300Z,981.23
2019-03-18T19:15:01.144Z,981.29
2019-03-18T19:20:01.193Z,981.37
2019-03-18T19:25:01.119Z,981.24
2019-03-18T19:30:01.259Z,981.43
2019-03-18T19:35:01.114Z,981.39
2019-03-18T19:40:01.149Z,981.43
2019-03-18T19:45:01.330Z,981.39
2019-03-18T19:50:01.209Z,981.51
2019-03-18T19:55:01.225Z,981.59
2019-03-18T20:00:01.227Z,981.74
2019-03-18T20:05:01.201Z,981.76
2019-03-18T20:10:01.598Z,981.88
2019-03-18T20:15:01.069Z,981.88
2019-03-18T20:20:01.598Z,981.93
2019-03-18T20:25:01.167Z,982.02
2019-03-18T20:30:04.187Z,982.03
2019-03-18T20:35:01.161Z,982.03
2019-03-18T20:40:01.101Z,982.15
2019-03-18T20:45:01.123Z,982.21
2019-03-18T20:50:01.359Z,982.37
2019-03-18T20:55:01.154Z,982.41
2019-03-18T21:00:01.286Z,982.44
2019-03-18T21:05:01.096Z,982.48
2019-03-18T21:10:01.416Z,982.57
2019-03-18T21:15:01.128Z,982.53
2019-03-18T21:20:01.337Z,982.45
2019-03-18T21:25:01.105Z,982.38
2019-03-18T21:30:01.260Z,982.39
2019-03-18T21:35:01.567Z,982.59
2019-03-18T21:40:01.289Z,982.51
2019-03-18T21:45:01.450Z,982.69
2019-03-18T21:50:01.129Z,982.73
2019-03-18T21:55:01.564Z,982.73
2019-03-18T22:00:01.123Z,982.66
2019-03-18T22:05:01.150Z,982.69
2019-03-18T22:10:01.400Z,982.73
2019-03-18T22:15:01.142Z,982.68
2019-03-18T22:20:01.155Z,982.61
2019-03-18T22:25:01.277Z,982.69
2019-03-18T22:30:01.343Z,982.60
2019-03-18T22:35:01.081Z,982.52
2019-03-18T22:40:01.174Z,982.51
2019-03-18T22:45:01.105Z,982.62
2019-03-18T22:50:01.128Z,982.51
2019-03-18T22:55:01.114Z,982.52
2019-03-18T23:00:01.388Z,982.44
2019-03-18T23:05:01.065Z,982.40
2019-03-18T23:10:01.367Z,982.36
2019-03-18T23:15:01.052Z,982.38
2019-03-18T23:20:01.448Z,982.36
2019-03-18T23:25:07.105Z,982.49
2019-03-18T23:30:01.089Z,982.57
2019-03-18T23:35:01.101Z,982.70
2019-03-18T23:40:01.096Z,982.71
2019-03-18T23:45:01.098Z,982.85
2019-03-18T23:50:01.076Z,982.88
2019-03-18T23:55:01.397Z,982.93
